createdAt,value
2024-05-09T00:00:46.879Z,-1.47
2024-05-09T00:03:14.346Z,-1.44
2024-05-09T00:05:42.740Z,-1.44
2024-05-09T00:08:11.197Z,-1.45
2024-05-09T00:10:40.526Z,-1.44
2024-05-09T00:13:09.768Z,-1.42
2024-05-09T00:15:37.513Z,-1.38
2024-05-09T00:18:07.293Z,-1.45
2024-05-09T00:20:39.580Z,-1.52
2024-05-09T00:23:13.997Z,-1.55
2024-05-09T00:25:43.423Z,-1.59
2024-05-09T00:28:14.482Z,-1.63
2024-05-09T00:30:42.150Z,-1.60
2024-05-09T00:33:10.888Z,-1.63
2024-05-09T00:35:39.428Z,-1.74
2024-05-09T00:38:07.254Z,-1.86
2024-05-09T00:40:40.186Z,-1.91
2024-05-09T00:43:11.884Z,-1.84
2024-05-09T00:45:39.784Z,-1.82
2024-05-09T00:48:09.520Z,-1.83
2024-05-09T00:50:41.773Z,-1.89
2024-05-09T00:53:15.493Z,-1.93
2024-05-09T00:55:43.609Z,-2.00
2024-05-09T00:58:12.748Z,-2.01
2024-05-09T01:00:41.591Z,-1.94
2024-05-09T01:03:12.122Z,-1.86
2024-05-09T01:05:42.086Z,-1.84
2024-05-09T01:08:10.510Z,-1.89
2024-05-09T01:10:38.677Z,-1.95
2024-05-09T01:13:07.047Z,-2.01
2024-05-09T01:15:35.706Z,-2.02
2024-05-09T01:18:11.051Z,-2.08
2024-05-09T01:20:42.842Z,-2.17
2024-05-09T01:23:14.802Z,-2.26
2024-05-09T01:25:45.622Z,-2.36
2024-05-09T01:28:13.842Z,-2.50
2024-05-09T01:30:41.950Z,-2.60
2024-05-09T01:33:11.095Z,-2.66
2024-05-09T01:35:42.258Z,-2.69
2024-05-09T01:38:14.292Z,-2.74
2024-05-09T01:40:41.753Z,-2.73
2024-05-09T01:43:10.198Z,-2.69
2024-05-09T01:45:38.911Z,-2.62
2024-05-09T01:48:07.435Z,-2.57
2024-05-09T01:50:39.588Z,-2.52
2024-05-09T01:53:13.188Z,-2.47
2024-05-09T01:55:40.914Z,-2.45
2024-05-09T01:58:09.092Z,-2.39
2024-05-09T02:00:40.861Z,-2.33
2024-05-09T02:03:13.925Z,-2.27
2024-05-09T02:05:44.794Z,-2.23
2024-05-09T02:08:17.200Z,-2.22
2024-05-09T02:10:45.139Z,-2.22
2024-05-09T02:13:13.556Z,-2.22
2024-05-09T02:15:41.174Z,-2.17
2024-05-09T02:18:09.225Z,-2.16
2024-05-09T02:20:39.300Z,-2.16
2024-05-09T02:23:07.342Z,-2.12
2024-05-09T02:25:34.973Z,-2.10
2024-05-09T02:28:02.577Z,-2.06
2024-05-09T02:30:38.159Z,-2.03
2024-05-09T02:33:11.308Z,-2.00
2024-05-09T02:35:40.877Z,-2.04
2024-05-09T02:38:09.937Z,-2.03
2024-05-09T02:40:39.247Z,-1.95
2024-05-09T02:43:08.874Z,-1.93
2024-05-09T02:45:37.748Z,-1.92
2024-05-09T02:48:05.892Z,-1.93
2024-05-09T02:50:38.318Z,-1.88
2024-05-09T02:53:09.225Z,-1.85
2024-05-09T02:55:38.236Z,-1.80
2024-05-09T02:58:08.930Z,-1.75
2024-05-09T03:00:40.230Z,-1.73
2024-05-09T03:03:14.823Z,-1.72
2024-05-09T03:05:44.837Z,-1.76
2024-05-09T03:08:13.090Z,-1.77
2024-05-09T03:10:40.591Z,-1.76
2024-05-09T03:13:08.385Z,-1.72
2024-05-09T03:15:36.442Z,-1.66
2024-05-09T03:18:05.426Z,-1.61
2024-05-09T03:20:35.480Z,-1.59
2024-05-09T03:23:05.507Z,-1.57
2024-05-09T03:25:34.337Z,-1.54
2024-05-09T03:28:01.854Z,-1.48
2024-05-09T03:30:36.274Z,-1.44
2024-05-09T03:33:13.934Z,-1.52
2024-05-09T03:35:43.019Z,-1.52
2024-05-09T03:38:10.476Z,-1.54
2024-05-09T03:40:48.013Z,-1.50
2024-05-09T03:43:16.307Z,-1.46
2024-05-09T03:45:43.896Z,-1.44
2024-05-09T03:48:11.459Z,-1.42
2024-05-09T03:50:39.109Z,-1.37
2024-05-09T03:53:07.311Z,-1.48
2024-05-09T03:55:34.940Z,-1.50
2024-05-09T03:58:02.142Z,-1.43
2024-05-09T04:00:36.898Z,-1.40
2024-05-09T04:03:09.049Z,-1.45
2024-05-09T04:05:42.971Z,-1.59
2024-05-09T04:08:15.294Z,-1.43
2024-05-09T04:10:43.357Z,-1.08
2024-05-09T04:13:11.197Z,-1.11
2024-05-09T04:15:39.235Z,-1.32
2024-05-09T04:18:07.062Z,-1.27
2024-05-09T04:20:39.002Z,-1.45
2024-05-09T04:23:13.073Z,-1.42
2024-05-09T04:25:43.278Z,-1.33
2024-05-09T04:28:11.041Z,-1.20
2024-05-09T04:30:40.867Z,-1.21
2024-05-09T04:33:14.298Z,-1.28
2024-05-09T04:35:45.785Z,-1.40
2024-05-09T04:38:14.660Z,-1.46
2024-05-09T04:40:42.719Z,-1.39
2024-05-09T04:43:19.190Z,-1.17
2024-05-09T04:45:46.801Z,-1.02
2024-05-09T04:48:14.427Z,-0.82
2024-05-09T04:50:42.222Z,-0.62
2024-05-09T04:53:11.101Z,-0.22
2024-05-09T04:55:40.725Z,-0.19
2024-05-09T04:58:12.076Z,-0.04
2024-05-09T05:00:40.920Z,-0.02
2024-05-09T05:03:13.450Z,-0.13
2024-05-09T05:05:44.978Z,-0.56
2024-05-09T05:08:15.494Z,-0.74
2024-05-09T05:10:44.080Z,-0.75
2024-05-09T05:13:23.283Z,-0.77
2024-05-09T05:15:57.371Z,-0.62
2024-05-09T05:18:27.414Z,-0.30
2024-05-09T05:20:56.254Z,0.04
2024-05-09T05:23:24.103Z,-0.06
2024-05-09T05:25:55.371Z,-0.40
2024-05-09T05:28:23.839Z,-0.58
2024-05-09T05:30:51.308Z,-0.75
2024-05-09T05:33:19.653Z,-0.93
2024-05-09T05:35:47.435Z,-1.10
2024-05-09T05:38:15.119Z,-1.10
2024-05-09T05:40:42.897Z,-1.12
2024-05-09T05:43:17.609Z,-1.21
2024-05-09T05:45:45.891Z,-1.25
2024-05-09T05:48:16.874Z,-1.20
2024-05-09T05:50:45.247Z,-1.20
2024-05-09T05:53:12.704Z,-1.15
2024-05-09T05:55:41.048Z,-0.82
2024-05-09T05:58:12.522Z,-0.52
2024-05-09T06:00:42.391Z,-0.20
2024-05-09T06:03:12.676Z,-0.01
2024-05-09T06:05:41.225Z,-0.08
2024-05-09T06:08:09.380Z,0.08
2024-05-09T06:10:39.871Z,0.57
2024-05-09T06:13:12.192Z,0.90
2024-05-09T06:15:40.831Z,1.15
2024-05-09T06:18:09.716Z,1.36
2024-05-09T06:20:40.212Z,0.98
2024-05-09T06:23:10.270Z,0.44
2024-05-09T06:25:38.117Z,-0.08
2024-05-09T06:28:06.261Z,-0.48
2024-05-09T06:30:40.134Z,-0.75
2024-05-09T06:33:11.933Z,-0.78
2024-05-09T06:35:41.411Z,-0.27
2024-05-09T06:38:09.516Z,0.14
2024-05-09T06:40:41.014Z,0.39
2024-05-09T06:43:16.379Z,0.55
2024-05-09T06:45:47.878Z,0.79
2024-05-09T06:48:21.744Z,0.97
2024-05-09T06:50:50.557Z,1.03
2024-05-09T06:53:22.267Z,1.25
2024-05-09T06:55:50.030Z,1.57
2024-05-09T06:58:17.359Z,1.63
2024-05-09T07:00:45.978Z,1.67
2024-05-09T07:03:19.422Z,1.43
2024-05-09T07:05:49.162Z,1.13
2024-05-09T07:08:17.729Z,0.70
2024-05-09T07:10:46.357Z,0.62
2024-05-09T07:13:15.491Z,0.83
2024-05-09T07:15:44.999Z,0.72
2024-05-09T07:18:17.134Z,1.17
2024-05-09T07:20:46.724Z,1.36
2024-05-09T07:23:14.943Z,1.49
2024-05-09T07:25:42.544Z,1.49
2024-05-09T07:28:16.576Z,1.18
2024-05-09T07:30:44.041Z,1.01
2024-05-09T07:33:19.365Z,0.92
2024-05-09T07:35:48.160Z,0.90
2024-05-09T07:38:16.314Z,0.99
2024-05-09T07:40:43.994Z,1.02
2024-05-09T07:43:12.054Z,1.16
2024-05-09T07:45:48.916Z,1.94
2024-05-09T07:52:39.122Z,2.34
2024-05-09T07:53:47.776Z,2.13
2024-05-09T07:56:21.768Z,1.99
2024-05-09T07:58:54.432Z,1.65
2024-05-09T08:01:22.092Z,1.45
2024-05-09T08:03:51.047Z,1.59
2024-05-09T08:06:18.500Z,1.77
2024-05-09T08:08:47.611Z,1.74
2024-05-09T08:11:16.382Z,1.95
2024-05-09T08:13:44.463Z,2.38
2024-05-09T08:16:13.557Z,2.55
2024-05-09T08:18:41.167Z,2.96
2024-05-09T08:21:09.186Z,3.46
2024-05-09T08:23:36.696Z,4.05
2024-05-09T08:26:04.060Z,3.27
2024-05-09T08:28:32.944Z,2.21
2024-05-09T08:31:03.152Z,1.61
2024-05-09T08:33:33.020Z,1.92
2024-05-09T08:36:01.220Z,2.51
2024-05-09T08:38:28.595Z,3.62
2024-05-09T08:40:57.117Z,4.34
2024-05-09T08:43:25.314Z,5.18
2024-05-09T08:45:52.771Z,4.86
2024-05-09T08:48:21.223Z,3.78
2024-05-09T08:50:52.554Z,3.13
2024-05-09T08:53:20.763Z,2.69
2024-05-09T08:55:49.515Z,2.96
2024-05-09T08:58:19.931Z,4.69
2024-05-09T09:00:49.188Z,6.15
2024-05-09T09:03:24.397Z,6.42
2024-05-09T09:05:57.543Z,5.37
2024-05-09T09:08:27.327Z,6.12
2024-05-09T09:10:58.881Z,5.14
2024-05-09T09:13:28.151Z,4.14
2024-05-09T09:15:59.174Z,3.41
2024-05-09T09:18:34.829Z,3.35
2024-05-09T09:21:03.395Z,3.22
2024-05-09T09:23:32.928Z,3.14
2024-05-09T09:26:00.925Z,3.38
2024-05-09T09:28:28.417Z,4.91
2024-05-09T09:31:03.760Z,6.05
2024-05-09T09:33:33.386Z,7.62
2024-05-09T09:36:07.520Z,7.96
2024-05-09T09:38:36.764Z,6.83
2024-05-09T09:41:07.631Z,5.35
2024-05-09T09:43:37.064Z,4.69
2024-05-09T09:46:08.713Z,4.10
2024-05-09T09:48:38.444Z,3.71
2024-05-09T09:51:09.357Z,3.73
2024-05-09T09:53:43.008Z,4.68
2024-05-09T09:56:10.780Z,6.24
2024-05-09T09:58:39.392Z,6.93
2024-05-09T10:01:08.022Z,6.52
2024-05-09T10:03:36.903Z,5.13
2024-05-09T10:06:05.930Z,4.21
2024-05-09T10:08:36.033Z,4.48
2024-05-09T10:11:07.241Z,5.16
2024-05-09T10:13:37.542Z,4.87
2024-05-09T10:16:11.297Z,4.52
2024-05-09T10:18:41.693Z,4.45
2024-05-09T10:21:21.331Z,4.84
2024-05-09T10:24:00.107Z,5.79
2024-05-09T10:26:37.614Z,6.78
2024-05-09T10:29:19.711Z,7.74
2024-05-09T10:31:48.425Z,8.71
2024-05-09T10:34:25.041Z,7.23
2024-05-09T10:36:55.216Z,6.28
2024-05-09T10:39:24.743Z,5.90
2024-05-09T10:41:52.913Z,5.43
2024-05-09T10:44:23.180Z,5.02
2024-05-09T10:46:51.814Z,7.38
2024-05-09T10:49:20.921Z,8.49
2024-05-09T10:51:48.864Z,7.58
2024-05-09T10:54:17.102Z,7.45
2024-05-09T10:56:44.373Z,7.52
2024-05-09T10:59:14.276Z,6.85
2024-05-09T11:01:42.261Z,6.09
2024-05-09T11:04:10.470Z,5.47
2024-05-09T11:06:39.973Z,5.24
2024-05-09T11:09:08.973Z,5.16
2024-05-09T11:14:21.270Z,6.23
2024-05-09T11:17:01.936Z,5.63
2024-05-09T11:19:31.831Z,7.67
2024-05-09T11:22:05.204Z,7.55
2024-05-09T11:24:35.267Z,6.54
2024-05-09T11:27:04.187Z,6.21
2024-05-09T11:29:40.120Z,5.83
2024-05-09T11:32:09.406Z,6.58
2024-05-09T11:34:36.731Z,7.27
2024-05-09T11:37:04.576Z,7.50
2024-05-09T11:39:32.165Z,8.76
2024-05-09T11:42:00.110Z,8.52
2024-05-09T11:44:27.936Z,7.31
2024-05-09T11:46:56.905Z,6.32
2024-05-09T11:49:26.719Z,5.70
2024-05-09T11:51:54.427Z,5.32
2024-05-09T11:54:23.157Z,5.39
2024-05-09T11:56:51.824Z,5.22
2024-05-09T11:59:20.574Z,5.05
2024-05-09T12:01:49.985Z,5.81
2024-05-09T12:04:19.881Z,6.60
2024-05-09T12:06:48.846Z,7.56
2024-05-09T12:09:16.091Z,7.38
2024-05-09T12:11:45.477Z,6.83
2024-05-09T12:14:13.655Z,5.99
2024-05-09T12:16:43.638Z,5.73
2024-05-09T12:19:14.094Z,5.59
2024-05-09T12:21:44.382Z,5.55
2024-05-09T12:24:14.407Z,5.65
2024-05-09T12:26:45.164Z,5.60
2024-05-09T12:29:12.706Z,5.45
2024-05-09T12:31:41.636Z,5.45
2024-05-09T12:34:10.159Z,5.82
2024-05-09T12:36:38.677Z,6.06
2024-05-09T12:39:09.280Z,6.22
2024-05-09T12:41:37.139Z,6.97
2024-05-09T12:44:05.951Z,6.83
2024-05-09T12:46:33.846Z,6.17
2024-05-09T12:49:04.606Z,5.86
2024-05-09T12:51:32.203Z,5.67
2024-05-09T12:54:00.945Z,5.97
2024-05-09T12:56:31.820Z,5.58
2024-05-09T12:59:01.808Z,6.34
2024-05-09T13:01:31.126Z,5.93
2024-05-09T13:03:58.824Z,5.56
2024-05-09T13:06:26.242Z,5.45
2024-05-09T13:08:54.862Z,5.99
2024-05-09T13:11:22.255Z,5.78
2024-05-09T13:13:49.595Z,6.53
2024-05-09T13:16:17.067Z,7.31
2024-05-09T13:18:46.698Z,8.37
2024-05-09T13:21:17.686Z,7.70
2024-05-09T13:23:47.066Z,7.42
2024-05-09T13:26:15.785Z,7.14
2024-05-09T13:28:43.046Z,8.66
2024-05-09T13:31:10.922Z,10.14
2024-05-09T13:33:39.894Z,9.62
2024-05-09T13:36:09.961Z,8.11
2024-05-09T13:38:40.270Z,6.94
2024-05-09T13:41:07.532Z,6.51
2024-05-09T13:43:35.061Z,6.79
2024-05-09T13:46:03.960Z,7.03
2024-05-09T13:48:32.237Z,6.98
2024-05-09T13:51:01.082Z,8.72
2024-05-09T13:53:28.276Z,9.27
2024-05-09T13:55:56.467Z,7.61
2024-05-09T13:58:25.386Z,7.07
2024-05-09T14:01:00.030Z,6.63
2024-05-09T14:03:30.230Z,7.93
2024-05-09T14:05:57.967Z,9.41
2024-05-09T14:08:25.429Z,8.28
2024-05-09T14:10:53.946Z,7.41
2024-05-09T14:13:23.117Z,7.43
2024-05-09T14:15:50.594Z,7.56
2024-05-09T14:18:19.504Z,10.06
2024-05-09T14:20:48.018Z,9.37
2024-05-09T14:23:17.459Z,7.91
2024-05-09T14:25:46.563Z,8.76
2024-05-09T14:28:19.329Z,9.11
2024-05-09T14:30:46.944Z,8.17
2024-05-09T14:33:23.694Z,7.18
2024-05-09T14:35:51.488Z,6.57
2024-05-09T14:38:18.907Z,6.50
2024-05-09T14:40:46.295Z,6.75
2024-05-09T14:43:16.189Z,8.04
2024-05-09T14:45:46.877Z,9.42
2024-05-09T14:48:16.569Z,9.68
2024-05-09T14:50:44.167Z,8.14
2024-05-09T14:53:13.536Z,7.37
2024-05-09T14:55:43.107Z,6.85
2024-05-09T14:58:12.471Z,7.13
2024-05-09T15:00:49.923Z,7.46
2024-05-09T15:03:23.378Z,7.78
2024-05-09T15:05:51.968Z,8.64
2024-05-09T15:08:20.498Z,7.38
2024-05-09T15:10:50.431Z,6.46
2024-05-09T15:13:21.276Z,6.49
2024-05-09T15:15:48.847Z,8.67
2024-05-09T15:18:17.253Z,9.11
2024-05-09T15:20:45.332Z,7.99
2024-05-09T15:23:13.643Z,8.30
2024-05-09T15:25:42.289Z,9.45
2024-05-09T15:28:09.781Z,9.27
2024-05-09T15:30:38.676Z,10.95
2024-05-09T15:33:11.284Z,10.33
2024-05-09T15:35:41.741Z,8.53
2024-05-09T15:38:12.754Z,7.37
2024-05-09T15:40:41.389Z,8.47
2024-05-09T15:43:11.190Z,8.12
2024-05-09T15:45:41.370Z,7.67
2024-05-09T15:48:12.130Z,7.05
2024-05-09T15:50:41.719Z,6.60
2024-05-09T15:53:12.676Z,6.07
2024-05-09T15:55:43.031Z,5.82
2024-05-09T15:58:12.568Z,5.62
2024-05-09T16:00:42.769Z,5.52
2024-05-09T16:03:16.988Z,5.48
2024-05-09T16:05:46.367Z,5.45
2024-05-09T16:08:15.911Z,5.49
2024-05-09T16:10:46.305Z,5.50
2024-05-09T16:13:17.549Z,5.43
2024-05-09T16:15:46.712Z,5.28
2024-05-09T16:18:15.567Z,5.10
2024-05-09T16:20:44.867Z,4.93
2024-05-09T16:23:13.881Z,4.88
2024-05-09T16:25:48.443Z,4.90
2024-05-09T16:28:17.782Z,4.90
2024-05-09T16:30:47.012Z,4.88
2024-05-09T16:33:14.707Z,4.79
2024-05-09T16:35:42.057Z,4.71
2024-05-09T16:38:09.383Z,4.58
2024-05-09T16:40:40.227Z,4.63
2024-05-09T16:43:13.118Z,4.66
2024-05-09T16:45:46.840Z,4.57
2024-05-09T16:48:16.250Z,4.49
2024-05-09T16:50:44.605Z,4.38
2024-05-09T16:53:14.581Z,4.30
2024-05-09T16:55:41.988Z,4.24
2024-05-09T16:58:12.396Z,4.20
2024-05-09T17:00:43.470Z,4.16
2024-05-09T17:03:17.911Z,4.15
2024-05-09T17:05:46.993Z,4.06
2024-05-09T17:08:16.709Z,3.99
2024-05-09T17:10:45.585Z,4.02
2024-05-09T17:13:13.414Z,3.94
2024-05-09T17:15:41.206Z,3.89
2024-05-09T17:18:10.043Z,3.89
2024-05-09T17:20:38.765Z,3.86
2024-05-09T17:23:13.716Z,3.81
2024-05-09T17:25:42.167Z,3.74
2024-05-09T17:28:11.383Z,3.58
2024-05-09T17:30:41.025Z,3.46
2024-05-09T17:33:13.206Z,3.35
2024-05-09T17:35:46.158Z,3.31
2024-05-09T17:38:14.682Z,3.23
2024-05-09T17:40:42.191Z,3.11
2024-05-09T17:43:10.901Z,3.08
2024-05-09T17:45:40.863Z,3.09
2024-05-09T17:48:10.639Z,3.09
2024-05-09T17:50:41.026Z,3.01
2024-05-09T17:53:09.302Z,2.96
2024-05-09T17:55:36.887Z,2.92
2024-05-09T17:58:05.631Z,2.97
2024-05-09T18:00:39.441Z,2.97
2024-05-09T18:03:30.415Z,3.15
2024-05-09T18:05:58.086Z,3.15
2024-05-09T18:08:25.468Z,3.09
2024-05-09T18:10:55.222Z,3.09
2024-05-09T18:13:23.211Z,3.04
2024-05-09T18:15:50.527Z,3.06
2024-05-09T18:18:17.887Z,3.01
2024-05-09T18:20:46.334Z,2.96
2024-05-09T18:23:16.158Z,2.90
2024-05-09T18:25:45.449Z,2.87
2024-05-09T18:28:13.157Z,2.89
2024-05-09T18:30:42.013Z,2.83
2024-05-09T18:33:11.546Z,2.72
2024-05-09T18:35:44.191Z,2.64
2024-05-09T18:38:14.503Z,2.58
2024-05-09T18:40:44.702Z,2.57
2024-05-09T18:43:14.334Z,2.51
2024-05-09T18:45:41.687Z,2.45
2024-05-09T18:48:12.681Z,2.51
2024-05-09T18:50:41.363Z,2.46
2024-05-09T18:53:13.294Z,2.36
2024-05-09T18:55:45.190Z,2.33
2024-05-09T18:58:12.863Z,2.27
2024-05-09T19:00:42.911Z,2.13
2024-05-09T19:03:15.184Z,2.01
2024-05-09T19:05:45.032Z,1.97
2024-05-09T19:08:15.518Z,1.95
2024-05-09T19:10:45.951Z,1.86
2024-05-09T19:13:15.650Z,1.81
2024-05-09T19:15:43.960Z,1.77
2024-05-09T19:18:14.530Z,1.66
2024-05-09T19:20:42.887Z,1.58
2024-05-09T19:23:11.992Z,1.59
2024-05-09T19:25:40.531Z,1.55
2024-05-09T19:28:08.147Z,1.61
2024-05-09T19:30:40.682Z,1.51
2024-05-09T19:33:13.113Z,1.59
2024-05-09T19:35:41.948Z,1.65
2024-05-09T19:38:10.834Z,1.65
2024-05-09T19:40:38.160Z,1.63
2024-05-09T19:43:07.301Z,1.62
2024-05-09T19:45:36.682Z,1.74
2024-05-09T19:48:05.451Z,1.68
2024-05-09T19:50:41.261Z,1.59
2024-05-09T19:53:13.700Z,1.59
2024-05-09T19:55:41.905Z,1.65
2024-05-09T19:58:10.927Z,1.72
2024-05-09T20:00:41.391Z,1.71
2024-05-09T20:03:12.042Z,1.69
2024-05-09T20:05:39.945Z,1.58
2024-05-09T20:08:09.682Z,1.52
2024-05-09T20:10:37.726Z,1.45
2024-05-09T20:13:08.933Z,1.35
2024-05-09T20:15:38.061Z,1.32
2024-05-09T20:18:08.904Z,1.17
2024-05-09T20:20:41.518Z,1.07
2024-05-09T20:23:13.487Z,1.01
2024-05-09T20:25:42.960Z,0.91
2024-05-09T20:32:46.708Z,0.63
2024-05-09T20:35:15.369Z,0.63
2024-05-09T20:37:46.992Z,0.63
2024-05-09T20:40:21.230Z,0.62
2024-05-09T20:42:53.218Z,0.69
2024-05-09T20:45:20.648Z,0.73
2024-05-09T20:47:49.912Z,0.68
2024-05-09T20:50:27.849Z,0.58
2024-05-09T20:53:03.716Z,0.54
2024-05-09T20:55:31.131Z,0.49
2024-05-09T20:57:59.289Z,0.48
2024-05-09T21:00:35.150Z,0.47
2024-05-09T21:03:07.808Z,0.40
2024-05-09T21:05:35.853Z,0.39
2024-05-09T21:08:03.413Z,0.46
2024-05-09T21:10:33.555Z,0.57
2024-05-09T21:13:03.354Z,0.51
2024-05-09T21:15:32.969Z,0.51
2024-05-09T21:18:00.429Z,0.62
2024-05-09T21:20:31.580Z,0.58
2024-05-09T21:23:01.892Z,0.70
2024-05-09T21:25:29.723Z,0.80
2024-05-09T21:27:57.175Z,0.80
2024-05-09T21:30:36.802Z,0.86
2024-05-09T21:33:10.600Z,0.86
2024-05-09T21:35:40.306Z,0.89
2024-05-09T21:38:07.939Z,0.96
2024-05-09T21:40:36.641Z,1.00
2024-05-09T21:43:05.621Z,0.99
2024-05-09T21:45:34.038Z,0.90
2024-05-09T21:48:04.848Z,0.84
2024-05-09T21:50:39.338Z,0.70
2024-05-09T21:53:09.869Z,0.64
2024-05-09T21:55:37.316Z,0.71
2024-05-09T21:58:04.864Z,0.76
2024-05-09T22:00:36.831Z,0.69
2024-05-09T22:03:07.673Z,0.64
2024-05-09T22:08:20.462Z,0.68
2024-05-09T22:10:47.925Z,0.69
2024-05-09T22:13:17.181Z,0.72
2024-05-09T22:15:44.805Z,0.71
2024-05-09T22:18:12.247Z,0.70
2024-05-09T22:20:46.816Z,0.75
2024-05-09T22:23:15.671Z,0.76
2024-05-09T22:25:42.982Z,0.77
2024-05-09T22:28:10.390Z,0.77
2024-05-09T22:30:39.866Z,0.72
2024-05-09T22:33:09.749Z,0.71
2024-05-09T22:35:38.614Z,0.72
2024-05-09T22:38:06.142Z,0.78
2024-05-09T22:40:43.278Z,0.84
2024-05-09T22:43:24.002Z,0.94
2024-05-09T22:45:55.157Z,0.90
2024-05-09T22:48:24.557Z,0.90
2024-05-09T22:50:52.445Z,0.86
2024-05-09T22:53:22.241Z,0.86
2024-05-09T22:55:49.728Z,0.93
2024-05-09T22:58:17.216Z,0.84
2024-05-09T23:00:44.645Z,0.76
2024-05-09T23:03:12.079Z,0.79
2024-05-09T23:05:39.481Z,0.89
2024-05-09T23:08:07.391Z,0.84
2024-05-09T23:10:37.709Z,0.89
2024-05-09T23:13:07.375Z,0.97
2024-05-09T23:15:37.028Z,1.00
2024-05-09T23:18:04.721Z,1.01
2024-05-09T23:20:37.466Z,0.98
2024-05-09T23:23:07.762Z,1.07
2024-05-09T23:25:35.266Z,1.01
2024-05-09T23:28:02.835Z,0.98
2024-05-09T23:30:37.413Z,0.92
2024-05-09T23:33:08.494Z,0.91
2024-05-09T23:35:36.279Z,0.90
2024-05-09T23:38:04.290Z,0.90
2024-05-09T23:40:38.119Z,0.88
2024-05-09T23:43:09.223Z,0.84
2024-05-09T23:45:37.342Z,0.73
2024-05-09T23:48:05.537Z,0.79
2024-05-09T23:50:36.570Z,0.94
2024-05-09T23:53:07.779Z,0.96
2024-05-09T23:55:36.314Z,0.94
2024-05-09T23:58:04.031Z,0.94
